Ana Sayfa
METAR-TAF:

METAR-TAF

Havaalanları :

Ashe County Airport

West Jefferson, Kuzey Carolina, Amerika Birleşik Devletleri

Enlem: 36-26N, Boylam: 081-25W, yükseklik: 969 m

Güncel hava durumu gözlemi

Rapor saat 02:55 UTC de 33 dakika önce yapıldı.
Rüzgar kuzeybatıdan 5 kt
Sıcaklık 16°C
Nem 77%
Basınç 1019 hPa
Görüş mesafesi: 16.1 km
Açık gökyüzü

METAR: KGEV 240255Z AUTO 32005KT 10SM CLR 16/12 A3009 RMK AO2 T01570117

Saat: 23:28 (03:28 UTC)


TAF: eksik

4.000'den fazla havaalanı için hava durumu gözlemleri ve tahminleri (METAR ve TAF raporları).

Kullanılabilir istasyonlar harita üzerinde sarı ve kırmızı noktalarla gösterilir.

İstasyonun adını görmek için fareyi noktanın üzerinde gezdirin.

Sonrasında hava gözlem ve tahminlerini görmek için tıklayın.

Haritayı değiştirmek için: yaklaştırmak için siyah artı işaretli yeşil düğmeye ve uzaklaştırmak için de eksi işaretli düğmeye hızla tıklayın; bitişik haritalar için yeşil okları kullanın.


METAR-TAF: